Time;durP1;ratioP1;P1;durP2;ratioP2;P2;SDS_P1;SDS_P2;PMS_P1;PMS_P2;Temp;Humidity;BMP_temperature;BMP_pressure;BME280_temperature;BME280_humidity;BME280_pressure;Samples;Min_cycle;Max_cycle;Signal;HPM_P1;HPM_P2
2023/04/10 00:01:12;;;;;;;48.50;28.20;;;8.20;99.90;;;;;;5027511;28;20099;-74
2023/04/10 00:03:37;;;;;;;51.83;28.77;;;8.20;99.90;;;;;;5008517;28;20048;-73
2023/04/10 00:06:03;;;;;;;44.15;27.05;;;8.20;99.90;;;;;;5027867;28;20052;-73
2023/04/10 00:08:29;;;;;;;44.72;27.65;;;8.20;99.90;;;;;;5045898;28;20454;-74
2023/04/10 00:10:55;;;;;;;49.10;28.92;;;8.20;99.90;;;;;;5011528;28;20132;-74
2023/04/10 00:13:21;;;;;;;48.95;28.70;;;8.20;99.90;;;;;;5028486;28;20052;-74
2023/04/10 00:15:48;;;;;;;48.72;28.70;;;8.20;99.90;;;;;;5026073;28;20496;-74
2023/04/10 00:18:14;;;;;;;46.63;28.75;;;8.10;99.90;;;;;;5011816;28;20095;-72
2023/04/10 00:20:40;;;;;;;47.53;28.55;;;8.20;99.90;;;;;;5044485;28;20072;-74
2023/04/10 00:23:06;;;;;;;51.03;30.60;;;8.10;99.90;;;;;;5008772;28;20087;-74
2023/04/10 00:25:31;;;;;;;50.28;29.98;;;8.10;99.90;;;;;;5045192;28;20029;-74
2023/04/10 00:27:57;;;;;;;48.38;28.80;;;8.10;99.90;;;;;;5026966;28;20124;-74
2023/04/10 00:30:23;;;;;;;49.45;29.15;;;8.10;99.90;;;;;;5027249;28;20048;-74
2023/04/10 00:32:49;;;;;;;46.25;29.48;;;8.10;99.90;;;;;;5025318;28;20040;-74
2023/04/10 00:35:14;;;;;;;48.83;30.08;;;8.10;99.90;;;;;;5027370;28;20606;-72
2023/04/10 00:37:40;;;;;;;48.65;30.80;;;8.00;99.90;;;;;;5045170;28;20053;-74
2023/04/10 00:40:07;;;;;;;46.55;29.40;;;8.00;99.90;;;;;;5028627;28;20045;-73
2023/04/10 00:42:33;;;;;;;52.90;30.40;;;8.00;99.90;;;;;;5026090;28;20052;-74
2023/04/10 00:44:59;;;;;;;47.78;29.40;;;8.00;99.90;;;;;;5044782;28;20472;-74
2023/04/10 00:47:26;;;;;;;54.35;31.42;;;7.90;99.90;;;;;;5011559;28;20080;-73
2023/04/10 00:49:52;;;;;;;51.00;31.85;;;7.90;99.90;;;;;;5043823;28;20044;-74
2023/04/10 00:52:19;;;;;;;50.22;30.92;;;7.90;99.90;;;;;;5011638;28;20561;-74
2023/04/10 00:54:45;;;;;;;52.78;30.60;;;7.90;99.90;;;;;;5013204;28;20048;-74
2023/04/10 00:57:11;;;;;;;49.55;29.75;;;8.20;99.90;;;;;;5028833;28;20071;-73
2023/04/10 00:59:37;;;;;;;52.53;31.45;;;7.80;99.90;;;;;;5028465;28;20045;-74
2023/04/10 01:02:03;;;;;;;53.35;32.88;;;7.80;99.90;;;;;;5030433;28;20505;-73
2023/04/10 01:04:30;;;;;;;52.17;31.75;;;7.80;99.90;;;;;;5025073;28;20037;-73
2023/04/10 01:07:17;;;;;;;55.55;31.80;;;7.80;99.90;;;;;;5032047;28;20045;-73
2023/04/10 01:09:46;;;;;;;49.10;31.38;;;7.70;99.90;;;;;;5031461;28;20048;-74
2023/04/10 01:12:40;;;;;;;59.35;33.03;;;7.70;99.90;;;;;;5033305;28;20049;-73
2023/04/10 01:15:14;;;;;;;57.50;33.47;;;7.70;99.90;;;;;;5031987;28;20045;-73
2023/04/10 01:17:54;;;;;;;57.38;34.83;;;7.70;99.90;;;;;;5047876;28;20041;-72
2023/04/10 01:20:22;;;;;;;55.58;33.28;;;7.60;99.90;;;;;;5033514;28;20516;-74
2023/04/10 01:23:03;;;;;;;54.17;33.22;;;7.50;99.90;;;;;;5046142;28;20041;-74
2023/04/10 01:26:02;;;;;;;50.92;32.00;;;7.50;99.90;;;;;;5031425;28;20080;-74
2023/04/10 01:28:36;;;;;;;58.17;33.60;;;7.50;99.90;;;;;;5030048;28;20495;-74
2023/04/10 01:31:06;;;;;;;57.75;33.90;;;7.40;99.90;;;;;;5042549;28;20497;-74
2023/04/10 01:33:44;;;;;;;59.10;34.50;;;7.40;99.90;;;;;;5011538;28;20048;-73
2023/04/10 01:36:11;;;;;;;60.53;35.65;;;7.30;99.90;;;;;;5030363;28;20727;-74
2023/04/10 01:38:41;;;;;;;61.10;36.20;;;7.30;99.90;;;;;;5029479;28;20049;-73
2023/04/10 01:41:07;;;;;;;60.03;36.55;;;7.30;99.90;;;;;;5046303;28;20288;-73
2023/04/10 01:43:33;;;;;;;60.33;36.58;;;7.20;99.90;;;;;;5047139;28;20097;-74
2023/04/10 01:46:02;;;;;;;63.78;36.78;;;7.20;99.90;;;;;;5015623;28;20041;-73
2023/04/10 01:48:28;;;;;;;59.85;36.25;;;7.20;99.90;;;;;;5031070;28;20102;-73
2023/04/10 01:50:55;;;;;;;60.03;36.33;;;7.10;99.90;;;;;;5032376;28;20052;-72
2023/04/10 01:53:22;;;;;;;62.95;36.72;;;7.10;99.90;;;;;;5034639;28;20589;-74
2023/04/10 01:55:49;;;;;;;62.05;38.85;;;7.10;99.90;;;;;;5048388;28;20047;-75
2023/04/10 01:58:15;;;;;;;65.40;38.47;;;7.10;99.90;;;;;;5030192;28;20041;-74
2023/04/10 02:00:42;;;;;;;64.60;37.88;;;7.10;99.90;;;;;;5031374;28;20059;-73
2023/04/10 02:03:08;;;;;;;63.33;39.47;;;7.10;99.90;;;;;;5031639;28;20040;-74
2023/04/10 02:06:06;;;;;;;61.05;37.92;;;7.10;99.90;;;;;;5049350;28;20044;-74
2023/04/10 02:08:56;;;;;;;63.17;38.85;;;7.00;99.90;;;;;;5023270;28;20060;-74
2023/04/10 02:12:06;;;;;;;57.08;35.75;;;7.00;99.90;;;;;;5045711;28;20049;-74
2023/04/10 02:14:35;;;;;;;62.22;37.65;;;7.00;99.90;;;;;;4998424;28;20120;-73
2023/04/10 02:17:02;;;;;;;61.95;37.53;;;7.00;99.90;;;;;;5034993;28;20754;-72
2023/04/10 02:19:31;;;;;;;66.82;39.70;;;6.90;99.90;;;;;;5013866;28;20051;-73
2023/04/10 02:21:57;;;;;;;62.00;37.33;;;6.90;99.90;;;;;;5048345;28;20738;-74
2023/04/10 02:24:24;;;;;;;63.70;38.15;;;6.90;99.90;;;;;;5043292;28;20041;-73
2023/04/10 02:26:51;;;;;;;62.70;38.72;;;6.90;99.90;;;;;;5013148;28;20045;-74
2023/04/10 02:29:18;;;;;;;63.38;39.13;;;6.90;99.90;;;;;;5013810;28;20107;-74
2023/04/10 02:31:48;;;;;;;66.18;39.70;;;6.90;99.90;;;;;;5030662;28;20040;-73
2023/04/10 02:34:14;;;;;;;57.17;37.85;;;6.80;99.90;;;;;;5048881;28;20053;-72
2023/04/10 02:36:40;;;;;;;64.55;38.45;;;6.80;99.90;;;;;;5049370;28;20079;-74
2023/04/10 02:39:07;;;;;;;67.20;40.65;;;7.20;99.90;;;;;;5047075;28;20989;-74
2023/04/10 02:41:33;;;;;;;66.20;40.38;;;6.80;99.90;;;;;;5045851;28;20417;-73
2023/04/10 02:43:59;;;;;;;63.63;38.40;;;6.80;99.90;;;;;;5047259;28;20049;-73
2023/04/10 02:46:24;;;;;;;64.25;39.47;;;6.80;99.90;;;;;;5012117;28;20772;-74
2023/04/10 02:48:54;;;;;;;64.15;39.03;;;6.80;99.90;;;;;;5030369;28;20437;-73
2023/04/10 02:51:20;;;;;;;64.43;39.13;;;6.80;99.90;;;;;;5025090;28;20505;-69
2023/04/10 02:53:46;;;;;;;66.97;40.22;;;6.70;99.90;;;;;;5046232;28;20045;-70
2023/04/10 02:56:12;;;;;;;68.07;40.78;;;6.80;99.90;;;;;;5009512;28;20044;-70
2023/04/10 02:58:38;;;;;;;67.18;40.53;;;6.80;99.90;;;;;;5014610;28;20427;-71
2023/04/10 03:01:08;;;;;;;68.22;42.05;;;6.80;99.90;;;;;;5044448;28;20044;-70
2023/04/10 03:03:34;;;;;;;64.57;39.47;;;6.80;99.90;;;;;;5011184;28;20044;-71
2023/04/10 03:05:59;;;;;;;66.82;41.95;;;6.80;99.90;;;;;;5031730;28;20067;-71
2023/04/10 03:08:25;;;;;;;66.32;41.53;;;6.70;99.90;;;;;;5029607;28;20055;-71
2023/04/10 03:10:51;;;;;;;70.13;41.28;;;6.90;99.90;;;;;;5014305;28;20037;-71
2023/04/10 03:13:17;;;;;;;64.82;41.03;;;6.80;99.90;;;;;;5046185;28;20045;-70
2023/04/10 03:15:42;;;;;;;66.30;41.42;;;6.80;99.90;;;;;;5046586;28;20044;-70
2023/04/10 03:18:08;;;;;;;67.45;41.22;;;6.80;99.90;;;;;;5015025;28;20041;-70
2023/04/10 03:20:39;;;;;;;70.13;41.20;;;6.80;99.90;;;;;;5029541;28;20414;-71
2023/04/10 03:23:06;;;;;;;;;;;7.20;99.90;;;;;;5042296;28;20463;-70
2023/04/10 03:25:35;;;;;;;62.78;39.60;;;6.80;99.90;;;;;;5028871;28;20031;-70
2023/04/10 03:28:01;;;;;;;65.10;39.60;;;6.80;99.90;;;;;;5046615;28;20045;-70
2023/04/10 03:30:26;;;;;;;65.00;39.88;;;6.80;99.90;;;;;;5013603;28;20780;-70
2023/04/10 03:32:52;;;;;;;68.15;40.88;;;6.80;99.90;;;;;;5011749;28;20037;-70
2023/04/10 03:35:18;;;;;;;68.13;41.40;;;6.80;99.90;;;;;;5013574;28;20041;-70
2023/04/10 03:37:44;;;;;;;62.70;39.70;;;6.80;99.90;;;;;;5030087;28;20037;-69
2023/04/10 03:40:10;;;;;;;68.28;40.65;;;6.80;99.90;;;;;;5027496;28;20064;-70
2023/04/10 03:42:36;;;;;;;64.90;41.33;;;6.80;99.90;;;;;;5029976;28;20581;-70
2023/04/10 03:45:03;;;;;;;67.95;41.75;;;6.80;99.90;;;;;;5028285;28;20452;-70
2023/04/10 03:47:30;;;;;;;67.00;39.88;;;6.80;99.90;;;;;;5026045;28;20056;-70
2023/04/10 03:49:57;;;;;;;66.18;40.60;;;6.80;99.90;;;;;;5027772;28;20041;-70
2023/04/10 03:52:23;;;;;;;62.03;39.80;;;6.80;99.90;;;;;;5006975;28;20057;-70
2023/04/10 03:54:49;;;;;;;69.53;40.35;;;6.80;99.90;;;;;;5003831;28;20497;-70
2023/04/10 03:57:17;;;;;;;64.00;39.47;;;6.80;99.90;;;;;;5007733;28;20053;-70
2023/04/10 03:59:43;;;;;;;66.03;38.65;;;6.80;99.90;;;;;;5025825;28;20392;-70
2023/04/10 04:02:09;;;;;;;62.63;39.33;;;7.70;99.90;;;;;;5023856;28;20059;-70
2023/04/10 04:04:35;;;;;;;66.93;38.15;;;6.80;99.90;;;;;;5027187;28;20045;-70
2023/04/10 04:07:01;;;;;;;65.70;40.13;;;6.80;99.90;;;;;;5026702;28;20045;-70
2023/04/10 04:09:26;;;;;;;61.15;38.67;;;6.80;99.90;;;;;;5045345;28;20049;-70
2023/04/10 04:11:52;;;;;;;63.45;39.20;;;6.90;99.90;;;;;;5026399;28;20040;-70
2023/04/10 04:14:18;;;;;;;61.10;36.95;;;6.90;99.90;;;;;;5011715;28;20049;-69
2023/04/10 04:16:43;;;;;;;65.07;39.25;;;6.90;99.90;;;;;;5045881;28;20053;-70
2023/04/10 04:19:09;;;;;;;59.45;37.47;;;6.80;99.90;;;;;;5028337;28;20811;-70
2023/04/10 04:21:35;;;;;;;65.35;38.67;;;6.90;99.90;;;;;;5044427;28;20139;-70
2023/04/10 04:24:01;;;;;;;63.47;39.25;;;6.90;99.90;;;;;;5028447;28;20041;-70
2023/04/10 04:26:26;;;;;;;62.75;37.45;;;6.90;99.90;;;;;;5028687;28;20045;-70
2023/04/10 04:28:52;;;;;;;61.50;38.53;;;6.90;99.90;;;;;;5046798;28;20049;-70
2023/04/10 04:31:17;;;;;;;61.30;37.25;;;6.90;99.90;;;;;;5027318;28;20745;-69
2023/04/10 04:33:43;;;;;;;64.55;38.30;;;6.90;99.90;;;;;;5028025;28;20529;-70
2023/04/10 04:36:09;;;;;;;62.60;38.10;;;6.90;99.90;;;;;;5028413;28;20792;-70
2023/04/10 04:38:35;;;;;;;57.20;36.67;;;6.90;99.90;;;;;;5045187;28;20047;-70
2023/04/10 04:41:00;;;;;;;65.82;38.55;;;7.00;99.90;;;;;;5045049;28;20052;-70
2023/04/10 04:43:26;;;;;;;61.28;38.92;;;7.30;99.90;;;;;;5012902;28;20064;-70
2023/04/10 04:45:52;;;;;;;66.03;38.72;;;7.00;99.90;;;;;;5045954;28;20048;-70
2023/04/10 04:48:17;;;;;;;61.53;39.35;;;7.00;99.90;;;;;;5045675;28;20044;-69
2023/04/10 04:50:43;;;;;;;62.88;37.28;;;7.00;99.90;;;;;;5010718;28;20044;-70
2023/04/10 04:53:09;;;;;;;62.53;37.45;;;7.00;99.90;;;;;;5012102;28;20049;-70
2023/04/10 04:55:35;;;;;;;61.45;37.10;;;6.90;99.90;;;;;;5045727;28;20044;-70
2023/04/10 04:58:00;;;;;;;63.75;38.45;;;7.00;99.90;;;;;;5028264;28;20135;-70
2023/04/10 05:00:26;;;;;;;64.13;38.33;;;7.00;99.90;;;;;;5027354;28;20049;-70
2023/04/10 05:02:52;;;;;;;58.10;35.42;;;7.00;99.90;;;;;;5042965;28;20417;-70
2023/04/10 05:05:17;;;;;;;65.72;38.08;;;7.00;99.90;;;;;;5031577;28;20074;-69
2023/04/10 05:07:43;;;;;;;58.97;36.95;;;7.00;99.90;;;;;;5037455;28;20071;-70
2023/04/10 05:10:09;;;;;;;57.35;35.33;;;7.00;99.90;;;;;;5023554;28;20080;-70
2023/04/10 05:12:35;;;;;;;59.83;37.40;;;7.10;99.90;;;;;;5016652;28;20072;-70
2023/04/10 05:15:00;;;;;;;61.97;36.60;;;7.10;99.90;;;;;;5027542;28;20040;-70
2023/04/10 05:17:26;;;;;;;54.08;34.15;;;7.10;99.90;;;;;;5040429;28;20029;-70
2023/04/10 05:19:52;;;;;;;55.60;34.58;;;7.20;99.90;;;;;;5045507;28;20096;-70
2023/04/10 05:22:17;;;;;;;58.05;34.30;;;7.20;99.90;;;;;;5044010;28;20048;-69
2023/04/10 05:24:43;;;;;;;55.30;34.58;;;7.30;99.90;;;;;;5043561;28;20076;-71
2023/04/10 05:27:09;;;;;;;59.83;35.15;;;7.30;99.90;;;;;;5008094;28;20910;-70
2023/04/10 05:29:35;;;;;;;60.03;34.83;;;7.30;99.90;;;;;;5024244;28;20056;-70
2023/04/10 05:32:01;;;;;;;54.25;33.55;;;7.30;99.90;;;;;;5032870;28;20037;-69
2023/04/10 05:34:26;;;;;;;52.95;33.03;;;7.40;99.90;;;;;;5018821;28;20044;-70
2023/04/10 05:36:52;;;;;;;54.03;33.65;;;7.50;99.90;;;;;;5013444;28;20224;-69
2023/04/10 05:39:18;;;;;;;55.60;32.88;;;7.50;99.90;;;;;;4998703;28;20060;-70
2023/04/10 05:41:43;;;;;;;51.67;32.35;;;7.50;99.90;;;;;;5015686;28;20743;-69
2023/04/10 05:44:09;;;;;;;55.03;33.33;;;7.50;99.90;;;;;;5028833;28;20048;-71
2023/04/10 05:46:35;;;;;;;52.20;32.22;;;7.60;99.90;;;;;;5041340;28;20103;-70
2023/04/10 05:49:01;;;;;;;54.13;33.58;;;8.40;99.90;;;;;;5025880;28;20045;-70
2023/04/10 05:51:27;;;;;;;52.83;33.10;;;7.60;99.90;;;;;;5019566;28;20079;-70
2023/04/10 05:53:53;;;;;;;53.25;32.38;;;7.70;99.90;;;;;;5009667;28;20076;-70
2023/04/10 05:56:20;;;;;;;52.88;32.75;;;7.90;99.90;;;;;;5020004;28;20045;-70
2023/04/10 05:58:45;;;;;;;53.83;31.05;;;7.70;99.90;;;;;;5022298;28;20043;-71
2023/04/10 06:01:12;;;;;;;52.70;32.08;;;7.70;99.90;;;;;;5038004;28;20044;-70
2023/04/10 06:03:38;;;;;;;53.78;31.67;;;7.80;99.90;;;;;;5009288;28;20044;-70
2023/04/10 06:06:04;;;;;;;49.75;30.88;;;7.80;99.90;;;;;;5019497;28;20037;-71
2023/04/10 06:08:30;;;;;;;48.35;30.83;;;7.90;99.90;;;;;;5018091;28;20044;-71
2023/04/10 06:10:56;;;;;;;50.08;31.77;;;7.90;99.90;;;;;;5021391;28;20044;-70
2023/04/10 06:13:21;;;;;;;51.83;31.80;;;7.90;99.90;;;;;;5023657;28;20087;-70
2023/04/10 06:15:47;;;;;;;50.17;31.10;;;8.00;99.90;;;;;;5020837;28;20469;-70
2023/04/10 06:18:13;;;;;;;50.15;31.05;;;8.00;99.90;;;;;;5038971;28;20041;-70
2023/04/10 06:20:38;;;;;;;49.15;30.85;;;8.00;99.90;;;;;;5006624;28;20501;-71
2023/04/10 06:23:05;;;;;;;47.40;29.70;;;8.00;99.90;;;;;;5024980;28;20164;-70
2023/04/10 06:25:30;;;;;;;48.72;30.67;;;8.10;99.90;;;;;;5024565;28;20133;-71
2023/04/10 06:27:56;;;;;;;52.05;30.23;;;8.10;99.90;;;;;;5033358;28;20094;-70
2023/04/10 06:30:22;;;;;;;49.08;29.55;;;8.10;99.90;;;;;;5042634;28;20080;-70
2023/04/10 06:32:48;;;;;;;48.53;29.67;;;8.50;99.90;;;;;;5020344;28;20059;-70
2023/04/10 06:35:13;;;;;;;49.42;29.85;;;8.30;99.90;;;;;;5031817;28;20502;-70
2023/04/10 06:37:39;;;;;;;48.10;29.42;;;8.40;99.90;;;;;;5029538;28;20047;-70
2023/04/10 06:40:06;;;;;;;44.33;27.50;;;8.40;99.90;;;;;;5024079;28;20584;-70
2023/04/10 06:42:32;;;;;;;47.80;29.33;;;8.50;99.90;;;;;;5010661;28;20422;-70
2023/04/10 06:44:58;;;;;;;47.78;28.83;;;8.60;99.90;;;;;;5025447;28;20036;-70
2023/04/10 06:47:24;;;;;;;44.65;28.63;;;8.60;99.90;;;;;;5041949;28;20473;-71
2023/04/10 06:49:50;;;;;;;44.67;27.80;;;8.70;99.90;;;;;;5044563;28;20539;-69
2023/04/10 06:52:16;;;;;;;41.67;27.55;;;8.90;99.90;;;;;;5026902;28;20049;-71
2023/04/10 06:54:42;;;;;;;45.72;27.27;;;9.10;99.90;;;;;;5023201;28;20592;-70
2023/04/10 06:57:08;;;;;;;42.88;26.65;;;9.30;99.90;;;;;;5044603;28;20080;-70
2023/04/10 06:59:34;;;;;;;42.83;27.55;;;9.40;99.90;;;;;;5024809;28;20033;-71
2023/04/10 07:02:01;;;;;;;41.28;26.05;;;9.40;99.90;;;;;;5024740;28;20049;-71
2023/04/10 07:04:27;;;;;;;40.95;25.65;;;9.30;99.90;;;;;;5038740;28;20064;-70
2023/04/10 07:06:53;;;;;;;40.67;26.58;;;9.40;99.90;;;;;;5026608;28;20611;-70
2023/04/10 07:09:19;;;;;;;42.22;25.60;;;9.40;99.90;;;;;;5020383;28;20541;-70
2023/04/10 07:11:44;;;;;;;38.63;25.10;;;9.50;99.90;;;;;;5041879;28;20561;-70
2023/04/10 07:14:10;;;;;;;38.00;24.38;;;9.60;99.90;;;;;;5026686;28;20166;-70
2023/04/10 07:16:36;;;;;;;39.22;24.15;;;9.60;99.90;;;;;;5009474;28;20040;-71
2023/04/10 07:19:02;;;;;;;40.13;24.23;;;9.70;99.90;;;;;;5036879;28;20048;-71
2023/04/10 07:21:28;;;;;;;40.85;24.35;;;10.20;99.90;;;;;;5022366;28;20068;-70
2023/04/10 07:23:54;;;;;;;36.75;23.63;;;9.90;99.90;;;;;;5035990;28;20745;-70
2023/04/10 07:26:20;;;;;;;37.67;23.33;;;10.10;99.90;;;;;;5009791;28;20595;-71
2023/04/10 07:28:45;;;;;;;36.40;23.35;;;10.20;99.90;;;;;;5027431;28;20041;-71
2023/04/10 07:31:16;;;;;;;40.50;24.88;;;10.40;99.90;;;;;;5002889;28;20102;-71
2023/04/10 07:33:42;;;;;;;37.67;24.17;;;10.50;99.90;;;;;;5025509;28;20144;-70
2023/04/10 07:36:08;;;;;;;42.67;25.17;;;10.70;99.90;;;;;;5038370;28;20036;-70
2023/04/10 07:38:34;;;;;;;36.55;24.35;;;10.80;99.90;;;;;;5013273;28;21022;-70
2023/04/10 07:41:00;;;;;;;37.63;24.30;;;10.90;99.90;;;;;;5029967;28;20057;-71
2023/04/10 07:43:26;;;;;;;41.13;25.52;;;11.00;99.90;;;;;;5033623;28;20049;-71
2023/04/10 07:45:51;;;;;;;39.65;25.63;;;11.20;99.90;;;;;;5035157;28;20037;-70
2023/04/10 07:48:18;;;;;;;39.67;25.40;;;11.20;99.90;;;;;;5019378;28;20525;-71
2023/04/10 07:50:43;;;;;;;39.88;25.08;;;11.30;99.90;;;;;;5037529;28;20049;-71
2023/04/10 07:53:09;;;;;;;41.10;25.70;;;11.40;99.90;;;;;;5022711;28;20053;-71
2023/04/10 07:55:43;;;;;;;38.42;24.65;;;11.50;99.90;;;;;;5009889;28;20056;-71
2023/04/10 07:58:09;;;;;;;38.95;24.95;;;11.50;99.90;;;;;;5036823;28;20267;-71
2023/04/10 08:00:35;;;;;;;37.50;24.80;;;11.60;99.90;;;;;;5041511;28;20053;-70
2023/04/10 08:03:01;;;;;;;42.10;24.92;;;11.60;99.90;;;;;;5012833;28;20134;-71
2023/04/10 08:05:27;;;;;;;37.78;24.63;;;11.70;99.90;;;;;;5023126;28;20114;-71
2023/04/10 08:07:52;;;;;;;37.42;24.17;;;11.70;99.90;;;;;;5003457;28;20063;-71
2023/04/10 08:10:18;;;;;;;34.78;23.10;;;11.80;99.90;;;;;;5021135;28;20052;-71
2023/04/10 08:12:44;;;;;;;35.53;23.38;;;11.80;99.90;;;;;;5018526;28;20052;-71
2023/04/10 08:15:10;;;;;;;39.85;25.08;;;11.80;99.90;;;;;;5036773;28;20048;-71
2023/04/10 08:17:36;;;;;;;37.92;22.02;;;11.80;99.90;;;;;;5015632;28;20128;-71
2023/04/10 08:20:02;;;;;;;34.15;22.48;;;11.90;99.90;;;;;;5002411;28;20460;-71
2023/04/10 08:22:28;;;;;;;34.20;22.20;;;11.90;99.90;;;;;;5012876;28;20659;-70
2023/04/10 08:24:53;;;;;;;34.97;23.02;;;12.00;99.90;;;;;;5013814;28;20163;-71
2023/04/10 08:27:19;;;;;;;33.75;22.38;;;12.10;99.90;;;;;;5010306;28;20122;-70
2023/04/10 08:29:45;;;;;;;33.85;21.80;;;12.10;99.90;;;;;;5031960;28;20045;-70
2023/04/10 08:32:10;;;;;;;33.67;21.95;;;12.20;99.90;;;;;;5036465;28;20047;-71
2023/04/10 08:34:36;;;;;;;33.17;22.08;;;12.30;99.90;;;;;;5016082;28;20053;-72
2023/04/10 08:37:07;;;;;;;32.17;21.02;;;12.30;99.90;;;;;;5019198;28;20049;-71
2023/04/10 08:39:35;;;;;;;35.22;21.33;;;12.50;99.90;;;;;;5033184;28;20061;-71
2023/04/10 08:42:02;;;;;;;32.92;21.38;;;12.50;99.90;;;;;;4998526;28;20057;-71
2023/04/10 08:44:28;;;;;;;34.60;21.67;;;12.50;99.90;;;;;;5020373;28;20056;-72
2023/04/10 08:46:57;;;;;;;28.98;19.55;;;12.60;99.90;;;;;;5027572;28;20048;-72
2023/04/10 08:49:56;;;;;;;29.77;19.33;;;12.60;99.90;;;;;;5028006;28;20040;-71
2023/04/10 08:52:24;;;;;;;29.77;19.73;;;12.70;99.90;;;;;;5014510;28;20049;-71
2023/04/10 08:54:54;;;;;;;27.92;18.13;;;12.70;99.90;;;;;;5015485;28;20045;-70
2023/04/10 08:57:21;;;;;;;26.83;17.90;;;12.80;99.90;;;;;;5005919;28;20689;-72
2023/04/10 08:59:50;;;;;;;25.52;17.20;;;12.90;99.90;;;;;;5023813;28;20040;-72
2023/04/10 09:02:17;;;;;;;28.38;19.05;;;12.90;99.90;;;;;;5007437;28;20494;-70
2023/04/10 09:04:53;;;;;;;31.00;19.23;;;13.00;99.90;;;;;;5017020;28;20166;-72
2023/04/10 09:07:20;;;;;;;28.42;18.00;;;13.00;99.90;;;;;;5017102;28;20054;-72
2023/04/10 09:09:46;;;;;;;25.95;17.75;;;13.10;99.90;;;;;;5041922;28;20576;-71
2023/04/10 09:12:14;;;;;;;26.63;17.13;;;13.10;99.90;;;;;;5009410;28;20084;-71
2023/04/10 09:14:40;;;;;;;25.80;17.30;;;13.30;99.90;;;;;;5018602;28;20103;-71
2023/04/10 09:17:23;;;;;;;25.00;16.92;;;13.30;99.90;;;;;;5017737;28;20043;-71
2023/04/10 09:19:53;;;;;;;27.40;17.48;;;13.40;99.90;;;;;;5022584;28;20041;-71
2023/04/10 09:22:30;;;;;;;26.00;16.85;;;13.50;99.90;;;;;;5029644;28;20084;-72
2023/04/10 09:24:58;;;;;;;27.67;17.27;;;13.50;99.90;;;;;;5032521;28;20084;-70
2023/04/10 09:27:30;;;;;;;25.33;16.92;;;13.40;99.90;;;;;;5033442;28;20041;-71
2023/04/10 09:29:56;;;;;;;24.17;16.65;;;13.50;99.90;;;;;;5006997;28;20128;-71
2023/04/10 09:32:43;;;;;;;26.05;16.25;;;13.50;99.90;;;;;;5026340;28;20114;-71
2023/04/10 09:35:11;;;;;;;24.50;16.25;;;13.50;99.90;;;;;;5017210;28;20049;-72
2023/04/10 09:37:37;;;;;;;24.42;16.10;;;13.60;99.90;;;;;;5035184;28;20129;-72
2023/04/10 09:40:04;;;;;;;20.77;14.27;;;13.60;99.90;;;;;;5043876;28;20089;-70
2023/04/10 09:42:43;;;;;;;21.58;13.48;;;13.70;99.90;;;;;;5029048;28;20063;-71
2023/04/10 09:45:08;;;;;;;22.35;15.35;;;13.80;99.90;;;;;;5031371;28;20128;-72
2023/04/10 09:47:35;;;;;;;24.33;15.15;;;13.80;99.90;;;;;;5037207;28;20131;-71
2023/04/10 09:50:00;;;;;;;21.30;14.25;;;13.80;99.90;;;;;;5042002;28;20040;-72
2023/04/10 09:52:37;;;;;;;19.92;14.00;;;13.90;99.90;;;;;;5042259;28;20091;-72
2023/04/10 09:55:07;;;;;;;19.55;12.63;;;13.90;99.90;;;;;;5028671;28;20144;-70
2023/04/10 09:57:34;;;;;;;18.37;11.83;;;13.90;99.90;;;;;;5019567;28;20041;-72
2023/04/10 10:00:03;;;;;;;18.90;12.18;;;14.00;99.90;;;;;;5032376;28;20048;-71
2023/04/10 10:02:30;;;;;;;16.73;11.32;;;14.00;99.90;;;;;;5040439;28;20056;-71
2023/04/10 10:04:59;;;;;;;21.35;11.85;;;14.00;99.90;;;;;;5016150;28;20041;-71
2023/04/10 10:07:26;;;;;;;16.27;10.75;;;14.00;99.90;;;;;;5020272;28;20652;-71
2023/04/10 10:09:52;;;;;;;16.70;10.70;;;14.10;99.90;;;;;;5054560;28;20462;-72
2023/04/10 10:12:42;;;;;;;16.33;10.45;;;14.20;99.90;;;;;;5036706;28;20037;-71
2023/04/10 10:15:22;;;;;;;15.10;10.15;;;14.20;99.90;;;;;;5040937;28;20429;-72
2023/04/10 10:18:23;;;;;;;16.10;10.95;;;14.20;99.90;;;;;;5019802;28;20048;-72
2023/04/10 10:20:49;;;;;;;14.60;10.38;;;14.30;99.90;;;;;;5041148;28;20079;-71
2023/04/10 10:23:17;;;;;;;13.68;8.77;;;14.30;99.90;;;;;;5011842;28;20037;-72
2023/04/10 10:25:44;;;;;;;14.10;8.82;;;14.30;99.90;;;;;;5044321;28;20099;-71
2023/04/10 10:28:12;;;;;;;13.88;9.18;;;14.30;99.90;;;;;;5038054;28;20053;-70
2023/04/10 10:30:39;;;;;;;14.70;8.52;;;14.30;98.70;;;;;;5034556;28;20528;-71
2023/04/10 10:33:06;;;;;;;12.90;8.63;;;14.20;99.90;;;;;;5026068;28;20045;-72
2023/04/10 10:35:34;;;;;;;14.82;9.07;;;14.20;99.90;;;;;;5011679;28;20045;-71
2023/04/10 10:38:02;;;;;;;15.48;10.00;;;14.20;99.90;;;;;;5021996;28;20051;-73
2023/04/10 10:40:34;;;;;;;15.07;8.98;;;14.20;99.90;;;;;;5017864;28;20068;-71
2023/04/10 10:43:10;;;;;;;12.60;8.75;;;14.10;99.60;;;;;;5025761;28;20509;-71
2023/04/10 10:46:02;;;;;;;18.88;9.35;;;14.10;99.90;;;;;;5039169;28;20041;-71
2023/04/10 10:48:28;;;;;;;14.23;8.75;;;14.00;99.90;;;;;;5037332;28;20052;-72
2023/04/10 10:50:57;;;;;;;14.13;8.75;;;14.10;99.90;;;;;;5012782;28;20040;-72
2023/04/10 10:53:37;;;;;;;14.57;9.30;;;14.10;99.90;;;;;;5027883;28;20049;-71
2023/04/10 10:56:18;;;;;;;14.30;9.35;;;14.10;99.90;;;;;;5026297;28;20049;-71
2023/04/10 10:58:57;;;;;;;14.45;8.50;;;14.10;99.90;;;;;;5026547;28;20044;-72
2023/04/10 11:01:23;;;;;;;14.82;9.23;;;14.10;99.90;;;;;;5008021;28;20037;-71
2023/04/10 11:03:49;;;;;;;12.07;8.05;;;14.10;99.90;;;;;;5009881;28;20068;-71
2023/04/10 11:06:20;;;;;;;12.25;7.57;;;14.10;99.90;;;;;;5028209;28;20107;-71
2023/04/10 11:08:53;;;;;;;13.75;7.38;;;14.20;99.10;;;;;;5038147;28;20115;-71
2023/04/10 11:11:24;;;;;;;11.50;8.02;;;14.20;99.90;;;;;;5029412;28;20044;-71
2023/04/10 11:13:55;;;;;;;13.02;8.00;;;14.20;99.90;;;;;;5022792;28;20068;-71
2023/04/10 11:16:22;;;;;;;14.25;8.57;;;14.30;99.90;;;;;;5032642;28;20510;-73
2023/04/10 11:18:47;;;;;;;12.55;7.95;;;14.30;99.90;;;;;;5025489;28;20044;-71
2023/04/10 11:21:15;;;;;;;12.75;7.97;;;14.30;99.90;;;;;;5021156;28;20061;-71
2023/04/10 11:24:02;;;;;;;11.48;7.57;;;14.40;99.90;;;;;;5022531;28;20049;-72
2023/04/10 11:26:34;;;;;;;12.48;7.78;;;14.40;99.70;;;;;;5011954;28;20143;-72
2023/04/10 11:29:04;;;;;;;14.68;7.28;;;14.40;99.70;;;;;;5006243;28;20049;-72
2023/04/10 11:31:30;;;;;;;12.07;7.22;;;14.40;99.90;;;;;;5042525;28;20488;-73
2023/04/10 11:33:59;;;;;;;10.18;7.00;;;14.50;99.90;;;;;;5026134;28;20110;-72
2023/04/10 11:36:26;;;;;;;11.00;7.05;;;14.50;99.90;;;;;;5020704;28;20068;-72
2023/04/10 11:38:59;;;;;;;10.30;6.50;;;14.60;99.70;;;;;;5029018;28;20044;-71
2023/04/10 11:41:30;;;;;;;11.32;7.22;;;14.60;99.90;;;;;;5020589;28;20333;-71
2023/04/10 11:44:01;;;;;;;11.48;6.80;;;14.50;99.90;;;;;;5041231;28;20061;-72
2023/04/10 11:46:28;;;;;;;11.82;7.00;;;14.60;99.90;;;;;;5037958;28;20056;-71
2023/04/10 11:49:02;;;;;;;13.50;6.20;;;14.60;99.90;;;;;;5025076;28;20048;-71
2023/04/10 11:51:28;;;;;;;10.55;6.35;;;14.70;99.90;;;;;;5006548;28;20045;-72
2023/04/10 11:54:24;;;;;;;9.70;6.38;;;14.70;99.90;;;;;;5025566;28;20087;-71
2023/04/10 11:57:03;;;;;;;9.77;5.22;;;14.80;99.90;;;;;;4999938;28;20114;-71
2023/04/10 11:59:33;;;;;;;10.20;5.50;;;14.90;99.90;;;;;;5022726;28;20056;-71
2023/04/10 12:02:09;;;;;;;10.02;5.40;;;15.00;99.70;;;;;;5022865;28;20055;-71
2023/04/10 12:04:35;;;;;;;8.05;4.97;;;15.10;99.00;;;;;;5015594;28;20056;-71
2023/04/10 12:07:01;;;;;;;9.50;5.40;;;15.20;99.60;;;;;;5017974;28;20186;-71
2023/04/10 12:09:27;;;;;;;11.05;5.72;;;15.20;99.00;;;;;;5031071;28;20152;-70
2023/04/10 12:11:58;;;;;;;10.73;5.75;;;15.30;98.30;;;;;;5032333;28;22071;-71
2023/04/10 12:14:38;;;;;;;9.40;4.55;;;15.40;99.20;;;;;;5030487;28;20549;-70
2023/04/10 12:17:06;;;;;;;8.90;5.32;;;15.40;98.50;;;;;;5017445;28;20045;-74
2023/04/10 12:19:33;;;;;;;8.10;4.82;;;15.50;99.10;;;;;;5021532;28;20049;-73
2023/04/10 12:22:02;;;;;;;9.05;4.70;;;15.70;99.10;;;;;;5024757;28;20041;-72
2023/04/10 12:24:48;;;;;;;10.02;5.20;;;15.70;98.10;;;;;;5036001;28;20088;-74
2023/04/10 12:27:25;;;;;;;7.97;4.90;;;15.70;98.20;;;;;;5014673;28;20049;-71
2023/04/10 12:29:53;;;;;;;9.95;4.95;;;15.70;98.20;;;;;;5023424;28;20033;-72
2023/04/10 12:32:19;;;;;;;8.50;4.55;;;15.70;98.10;;;;;;5016382;28;20049;-71
2023/04/10 12:34:56;;;;;;;8.30;4.90;;;15.70;98.40;;;;;;5033708;28;20076;-72
2023/04/10 12:37:22;;;;;;;7.53;4.45;;;15.80;98.00;;;;;;5025845;28;20525;-71
2023/04/10 12:39:51;;;;;;;8.32;4.30;;;15.60;97.70;;;;;;5026387;28;20606;-71
2023/04/10 12:42:19;;;;;;;8.23;4.25;;;15.60;98.40;;;;;;4995919;28;20068;-70